sensor_id;sensor_type;location;lat;lon;timestamp;temperature;humidity
12303;DHT22;6214;48.012;7.862;2023-01-04T00:02:27;5.30;99.90
12303;DHT22;6214;48.012;7.862;2023-01-04T00:04:54;5.40;99.90
12303;DHT22;6214;48.012;7.862;2023-01-04T00:07:20;5.30;99.90
12303;DHT22;6214;48.012;7.862;2023-01-04T00:09:47;5.10;99.90
12303;DHT22;6214;48.012;7.862;2023-01-04T00:12:14;5.10;99.90
12303;DHT22;6214;48.012;7.862;2023-01-04T00:14:41;5.00;99.90
12303;DHT22;6214;48.012;7.862;2023-01-04T00:17:08;5.10;99.90
12303;DHT22;6214;48.012;7.862;2023-01-04T00:19:34;5.10;99.90
12303;DHT22;6214;48.012;7.862;2023-01-04T00:22:01;5.00;99.90
12303;DHT22;6214;48.012;7.862;2023-01-04T00:24:28;5.00;99.90
12303;DHT22;6214;48.012;7.862;2023-01-04T00:26:55;5.00;99.90
12303;DHT22;6214;48.012;7.862;2023-01-04T00:29:22;5.00;99.90
12303;DHT22;6214;48.012;7.862;2023-01-04T00:31:49;5.10;99.90
12303;DHT22;6214;48.012;7.862;2023-01-04T00:34:16;5.10;99.90
12303;DHT22;6214;48.012;7.862;2023-01-04T00:36:43;5.20;99.90
12303;DHT22;6214;48.012;7.862;2023-01-04T00:39:14;5.00;99.90
12303;DHT22;6214;48.012;7.862;2023-01-04T00:44:27;4.80;99.90
12303;DHT22;6214;48.012;7.862;2023-01-04T00:46:54;4.90;99.90
12303;DHT22;6214;48.012;7.862;2023-01-04T00:49:21;5.00;99.90
12303;DHT22;6214;48.012;7.862;2023-01-04T00:51:48;4.90;99.90
12303;DHT22;6214;48.012;7.862;2023-01-04T00:54:15;4.90;99.90
12303;DHT22;6214;48.012;7.862;2023-01-04T00:56:42;4.70;99.90
12303;DHT22;6214;48.012;7.862;2023-01-04T00:59:11;4.70;99.90
12303;DHT22;6214;48.012;7.862;2023-01-04T01:01:40;4.80;99.90
12303;DHT22;6214;48.012;7.862;2023-01-04T01:04:10;4.90;99.90
12303;DHT22;6214;48.012;7.862;2023-01-04T01:06:38;4.90;99.90
12303;DHT22;6214;48.012;7.862;2023-01-04T01:09:05;4.90;99.90
12303;DHT22;6214;48.012;7.862;2023-01-04T01:11:32;4.60;99.90
12303;DHT22;6214;48.012;7.862;2023-01-04T01:14:02;4.50;99.90
12303;DHT22;6214;48.012;7.862;2023-01-04T01:16:29;4.30;99.90
12303;DHT22;6214;48.012;7.862;2023-01-04T01:19:16;4.20;99.90
12303;DHT22;6214;48.012;7.862;2023-01-04T01:21:43;4.10;99.90
12303;DHT22;6214;48.012;7.862;2023-01-04T01:24:16;4.30;99.90
12303;DHT22;6214;48.012;7.862;2023-01-04T01:26:43;4.40;99.90
12303;DHT22;6214;48.012;7.862;2023-01-04T01:29:09;4.50;99.90
12303;DHT22;6214;48.012;7.862;2023-01-04T01:31:36;4.40;99.90
12303;DHT22;6214;48.012;7.862;2023-01-04T01:34:03;4.50;99.90
12303;DHT22;6214;48.012;7.862;2023-01-04T01:36:30;4.50;99.90
12303;DHT22;6214;48.012;7.862;2023-01-04T01:38:57;4.60;99.90
12303;DHT22;6214;48.012;7.862;2023-01-04T01:41:26;4.60;99.90
12303;DHT22;6214;48.012;7.862;2023-01-04T01:51:42;4.40;99.90
12303;DHT22;6214;48.012;7.862;2023-01-04T01:54:12;4.30;99.90
12303;DHT22;6214;48.012;7.862;2023-01-04T01:56:41;4.10;99.90
12303;DHT22;6214;48.012;7.862;2023-01-04T01:59:10;3.90;99.90
12303;DHT22;6214;48.012;7.862;2023-01-04T02:01:38;3.90;99.90
12303;DHT22;6214;48.012;7.862;2023-01-04T02:04:06;3.90;99.90
12303;DHT22;6214;48.012;7.862;2023-01-04T02:06:38;4.00;99.90
12303;DHT22;6214;48.012;7.862;2023-01-04T02:09:06;4.00;99.90
12303;DHT22;6214;48.012;7.862;2023-01-04T02:11:33;4.00;99.90
12303;DHT22;6214;48.012;7.862;2023-01-04T02:14:02;4.10;99.90
12303;DHT22;6214;48.012;7.862;2023-01-04T02:33:08;4.10;99.90
12303;DHT22;6214;48.012;7.862;2023-01-04T02:35:51;4.10;99.90
12303;DHT22;6214;48.012;7.862;2023-01-04T02:39:11;4.10;99.90
12303;DHT22;6214;48.012;7.862;2023-01-04T02:41:21;4.10;99.90
12303;DHT22;6214;48.012;7.862;2023-01-04T02:44:04;4.30;99.90
12303;DHT22;6214;48.012;7.862;2023-01-04T02:46:59;4.40;99.90
12303;DHT22;6214;48.012;7.862;2023-01-04T02:49:27;4.50;99.90
12303;DHT22;6214;48.012;7.862;2023-01-04T02:52:13;4.50;99.90
12303;DHT22;6214;48.012;7.862;2023-01-04T02:54:41;4.50;99.90
12303;DHT22;6214;48.012;7.862;2023-01-04T03:00:34;4.60;99.90
12303;DHT22;6214;48.012;7.862;2023-01-04T03:03:32;4.80;99.90
12303;DHT22;6214;48.012;7.862;2023-01-04T03:09:22;4.90;99.90
12303;DHT22;6214;48.012;7.862;2023-01-04T03:11:55;4.80;99.90
12303;DHT22;6214;48.012;7.862;2023-01-04T03:15:21;4.70;99.90
12303;DHT22;6214;48.012;7.862;2023-01-04T03:17:57;4.80;99.90
12303;DHT22;6214;48.012;7.862;2023-01-04T03:20:28;4.70;99.90
12303;DHT22;6214;48.012;7.862;2023-01-04T03:23:03;4.80;99.90
12303;DHT22;6214;48.012;7.862;2023-01-04T03:25:58;5.00;99.90
12303;DHT22;6214;48.012;7.862;2023-01-04T03:28:45;5.40;99.90
12303;DHT22;6214;48.012;7.862;2023-01-04T03:31:50;5.70;99.90
12303;DHT22;6214;48.012;7.862;2023-01-04T03:34:36;6.00;99.90
12303;DHT22;6214;48.012;7.862;2023-01-04T03:43:19;6.60;99.90
12303;DHT22;6214;48.012;7.862;2023-01-04T03:49:24;7.00;99.90
12303;DHT22;6214;48.012;7.862;2023-01-04T03:51:56;7.10;99.90
12303;DHT22;6214;48.012;7.862;2023-01-04T03:54:33;7.20;99.90
12303;DHT22;6214;48.012;7.862;2023-01-04T03:57:02;7.30;99.90
12303;DHT22;6214;48.012;7.862;2023-01-04T03:59:29;7.30;99.90
12303;DHT22;6214;48.012;7.862;2023-01-04T04:01:56;7.40;99.90
12303;DHT22;6214;48.012;7.862;2023-01-04T04:04:24;7.50;99.90
12303;DHT22;6214;48.012;7.862;2023-01-04T04:07:09;7.60;99.90
12303;DHT22;6214;48.012;7.862;2023-01-04T04:09:54;7.80;99.90
12303;DHT22;6214;48.012;7.862;2023-01-04T04:12:21;7.80;99.90
12303;DHT22;6214;48.012;7.862;2023-01-04T04:14:48;8.00;99.90
12303;DHT22;6214;48.012;7.862;2023-01-04T04:17:15;8.10;99.90
12303;DHT22;6214;48.012;7.862;2023-01-04T04:19:41;8.10;99.90
12303;DHT22;6214;48.012;7.862;2023-01-04T04:22:08;8.20;99.90
12303;DHT22;6214;48.012;7.862;2023-01-04T04:24:35;8.20;99.90
12303;DHT22;6214;48.012;7.862;2023-01-04T04:27:02;8.30;99.90
12303;DHT22;6214;48.012;7.862;2023-01-04T04:29:28;8.30;99.90
12303;DHT22;6214;48.012;7.862;2023-01-04T04:31:55;8.40;99.90
12303;DHT22;6214;48.012;7.862;2023-01-04T04:34:22;8.50;99.90
12303;DHT22;6214;48.012;7.862;2023-01-04T04:36:49;8.50;99.90
12303;DHT22;6214;48.012;7.862;2023-01-04T04:39:16;8.60;99.90
12303;DHT22;6214;48.012;7.862;2023-01-04T04:41:43;8.70;99.90
12303;DHT22;6214;48.012;7.862;2023-01-04T04:44:15;8.70;99.90
12303;DHT22;6214;48.012;7.862;2023-01-04T04:46:43;8.80;99.90
12303;DHT22;6214;48.012;7.862;2023-01-04T04:49:10;8.80;99.90
12303;DHT22;6214;48.012;7.862;2023-01-04T04:51:37;8.90;99.90
12303;DHT22;6214;48.012;7.862;2023-01-04T04:54:04;9.00;99.90
12303;DHT22;6214;48.012;7.862;2023-01-04T04:56:32;9.00;99.90
12303;DHT22;6214;48.012;7.862;2023-01-04T04:58:58;9.10;99.90
12303;DHT22;6214;48.012;7.862;2023-01-04T05:01:25;9.10;99.90
12303;DHT22;6214;48.012;7.862;2023-01-04T05:03:52;9.00;99.90
12303;DHT22;6214;48.012;7.862;2023-01-04T05:06:19;9.20;99.90
12303;DHT22;6214;48.012;7.862;2023-01-04T05:08:46;9.30;99.90
12303;DHT22;6214;48.012;7.862;2023-01-04T05:11:13;9.40;99.90
12303;DHT22;6214;48.012;7.862;2023-01-04T05:13:40;9.40;99.90
12303;DHT22;6214;48.012;7.862;2023-01-04T05:16:08;9.40;99.90
12303;DHT22;6214;48.012;7.862;2023-01-04T05:18:36;9.40;99.90
12303;DHT22;6214;48.012;7.862;2023-01-04T05:21:03;9.50;99.90
12303;DHT22;6214;48.012;7.862;2023-01-04T05:23:30;9.60;99.90
12303;DHT22;6214;48.012;7.862;2023-01-04T05:25:59;9.60;99.90
12303;DHT22;6214;48.012;7.862;2023-01-04T05:28:27;9.60;99.90
12303;DHT22;6214;48.012;7.862;2023-01-04T05:30:54;9.70;99.90
12303;DHT22;6214;48.012;7.862;2023-01-04T05:33:24;9.80;99.90
12303;DHT22;6214;48.012;7.862;2023-01-04T05:35:52;9.80;99.90
12303;DHT22;6214;48.012;7.862;2023-01-04T05:38:20;9.70;99.90
12303;DHT22;6214;48.012;7.862;2023-01-04T05:40:47;9.80;99.90
12303;DHT22;6214;48.012;7.862;2023-01-04T05:43:15;9.90;99.90
12303;DHT22;6214;48.012;7.862;2023-01-04T05:45:46;9.90;99.90
12303;DHT22;6214;48.012;7.862;2023-01-04T05:48:12;10.00;99.90
12303;DHT22;6214;48.012;7.862;2023-01-04T05:50:39;10.00;99.90
12303;DHT22;6214;48.012;7.862;2023-01-04T05:53:06;10.20;99.90
12303;DHT22;6214;48.012;7.862;2023-01-04T05:55:33;10.20;99.90
12303;DHT22;6214;48.012;7.862;2023-01-04T05:58:00;10.10;99.90
12303;DHT22;6214;48.012;7.862;2023-01-04T06:00:27;10.20;99.90
12303;DHT22;6214;48.012;7.862;2023-01-04T06:02:54;10.30;99.90
12303;DHT22;6214;48.012;7.862;2023-01-04T06:05:23;10.40;99.90
12303;DHT22;6214;48.012;7.862;2023-01-04T06:07:50;10.30;99.90
12303;DHT22;6214;48.012;7.862;2023-01-04T06:10:18;10.40;99.90
12303;DHT22;6214;48.012;7.862;2023-01-04T06:12:45;10.40;99.90
12303;DHT22;6214;48.012;7.862;2023-01-04T06:15:13;10.50;99.90
12303;DHT22;6214;48.012;7.862;2023-01-04T06:17:40;10.40;99.90
12303;DHT22;6214;48.012;7.862;2023-01-04T06:20:08;10.50;99.90
12303;DHT22;6214;48.012;7.862;2023-01-04T06:22:36;10.60;99.90
12303;DHT22;6214;48.012;7.862;2023-01-04T06:25:03;10.60;99.90
12303;DHT22;6214;48.012;7.862;2023-01-04T06:27:30;10.60;99.90
12303;DHT22;6214;48.012;7.862;2023-01-04T06:29:57;10.70;99.90
12303;DHT22;6214;48.012;7.862;2023-01-04T06:32:24;10.70;99.90
12303;DHT22;6214;48.012;7.862;2023-01-04T06:34:51;10.70;99.90
12303;DHT22;6214;48.012;7.862;2023-01-04T06:37:18;10.70;99.90
12303;DHT22;6214;48.012;7.862;2023-01-04T06:39:44;10.70;99.90
12303;DHT22;6214;48.012;7.862;2023-01-04T06:42:11;10.70;99.90
12303;DHT22;6214;48.012;7.862;2023-01-04T06:44:57;10.70;99.90
12303;DHT22;6214;48.012;7.862;2023-01-04T06:47:24;10.70;99.90
12303;DHT22;6214;48.012;7.862;2023-01-04T06:49:51;10.70;99.90
12303;DHT22;6214;48.012;7.862;2023-01-04T06:52:18;10.80;99.90
12303;DHT22;6214;48.012;7.862;2023-01-04T06:54:45;10.80;99.90
12303;DHT22;6214;48.012;7.862;2023-01-04T06:57:12;10.80;99.90
12303;DHT22;6214;48.012;7.862;2023-01-04T06:59:39;10.90;99.90
12303;DHT22;6214;48.012;7.862;2023-01-04T07:02:06;10.90;99.90
12303;DHT22;6214;48.012;7.862;2023-01-04T07:04:33;10.90;99.90
12303;DHT22;6214;48.012;7.862;2023-01-04T07:07:01;10.90;99.90
12303;DHT22;6214;48.012;7.862;2023-01-04T07:09:27;10.90;99.90
12303;DHT22;6214;48.012;7.862;2023-01-04T07:11:54;11.00;99.90
12303;DHT22;6214;48.012;7.862;2023-01-04T07:14:21;11.00;99.90
12303;DHT22;6214;48.012;7.862;2023-01-04T07:16:48;11.10;99.90
12303;DHT22;6214;48.012;7.862;2023-01-04T07:19:15;11.00;99.90
12303;DHT22;6214;48.012;7.862;2023-01-04T07:21:41;11.10;99.90
12303;DHT22;6214;48.012;7.862;2023-01-04T07:24:08;11.10;99.90
12303;DHT22;6214;48.012;7.862;2023-01-04T07:26:35;11.10;99.90
12303;DHT22;6214;48.012;7.862;2023-01-04T07:29:02;11.10;99.90
12303;DHT22;6214;48.012;7.862;2023-01-04T07:31:46;11.10;99.90
12303;DHT22;6214;48.012;7.862;2023-01-04T07:34:15;11.10;99.90
12303;DHT22;6214;48.012;7.862;2023-01-04T07:36:42;11.10;99.90
12303;DHT22;6214;48.012;7.862;2023-01-04T07:39:09;11.20;99.90
12303;DHT22;6214;48.012;7.862;2023-01-04T07:41:37;11.20;99.90
12303;DHT22;6214;48.012;7.862;2023-01-04T07:44:05;11.10;99.90
12303;DHT22;6214;48.012;7.862;2023-01-04T07:46:33;11.10;99.90
12303;DHT22;6214;48.012;7.862;2023-01-04T07:49:00;11.00;99.90
12303;DHT22;6214;48.012;7.862;2023-01-04T07:51:26;10.90;99.90
12303;DHT22;6214;48.012;7.862;2023-01-04T07:53:54;10.90;99.90
12303;DHT22;6214;48.012;7.862;2023-01-04T07:56:21;10.80;99.90
12303;DHT22;6214;48.012;7.862;2023-01-04T07:58:48;10.70;99.90
12303;DHT22;6214;48.012;7.862;2023-01-04T08:01:17;10.80;99.90
12303;DHT22;6214;48.012;7.862;2023-01-04T08:03:45;10.80;99.90
12303;DHT22;6214;48.012;7.862;2023-01-04T08:06:14;10.80;99.90
12303;DHT22;6214;48.012;7.862;2023-01-04T08:08:41;10.70;99.90
12303;DHT22;6214;48.012;7.862;2023-01-04T08:11:14;10.50;99.90
12303;DHT22;6214;48.012;7.862;2023-01-04T08:13:41;10.40;99.90
12303;DHT22;6214;48.012;7.862;2023-01-04T08:16:19;10.40;99.90
12303;DHT22;6214;48.012;7.862;2023-01-04T08:18:47;10.40;99.90
12303;DHT22;6214;48.012;7.862;2023-01-04T08:21:17;10.20;99.90
12303;DHT22;6214;48.012;7.862;2023-01-04T08:23:44;10.10;99.90
12303;DHT22;6214;48.012;7.862;2023-01-04T08:26:13;10.10;99.90
12303;DHT22;6214;48.012;7.862;2023-01-04T08:28:40;10.10;99.90
12303;DHT22;6214;48.012;7.862;2023-01-04T08:31:19;10.10;99.90
12303;DHT22;6214;48.012;7.862;2023-01-04T08:33:47;10.20;99.90
12303;DHT22;6214;48.012;7.862;2023-01-04T08:36:25;10.20;99.90
12303;DHT22;6214;48.012;7.862;2023-01-04T08:38:58;10.20;99.90
12303;DHT22;6214;48.012;7.862;2023-01-04T08:41:28;10.30;99.90
12303;DHT22;6214;48.012;7.862;2023-01-04T08:44:23;10.30;99.90
12303;DHT22;6214;48.012;7.862;2023-01-04T08:46:52;10.20;99.90
12303;DHT22;6214;48.012;7.862;2023-01-04T08:49:19;10.10;99.90
12303;DHT22;6214;48.012;7.862;2023-01-04T08:51:47;10.10;99.90
12303;DHT22;6214;48.012;7.862;2023-01-04T08:54:14;10.00;99.90
12303;DHT22;6214;48.012;7.862;2023-01-04T08:56:41;10.00;99.90
12303;DHT22;6214;48.012;7.862;2023-01-04T08:59:10;10.10;99.90
12303;DHT22;6214;48.012;7.862;2023-01-04T09:01:37;10.10;99.90
12303;DHT22;6214;48.012;7.862;2023-01-04T09:04:05;10.10;99.90
12303;DHT22;6214;48.012;7.862;2023-01-04T09:06:32;10.10;99.90
12303;DHT22;6214;48.012;7.862;2023-01-04T09:08:59;10.00;99.90
12303;DHT22;6214;48.012;7.862;2023-01-04T09:11:26;10.00;99.90
12303;DHT22;6214;48.012;7.862;2023-01-04T09:13:55;10.10;99.90
12303;DHT22;6214;48.012;7.862;2023-01-04T09:16:32;10.10;99.90
12303;DHT22;6214;48.012;7.862;2023-01-04T09:18:59;10.10;99.90
12303;DHT22;6214;48.012;7.862;2023-01-04T09:21:26;10.20;99.90
12303;DHT22;6214;48.012;7.862;2023-01-04T09:23:55;10.30;99.90
12303;DHT22;6214;48.012;7.862;2023-01-04T09:26:23;10.40;99.90
12303;DHT22;6214;48.012;7.862;2023-01-04T09:28:52;10.30;99.90
12303;DHT22;6214;48.012;7.862;2023-01-04T09:31:26;10.20;99.90
12303;DHT22;6214;48.012;7.862;2023-01-04T09:33:55;10.40;99.90
12303;DHT22;6214;48.012;7.862;2023-01-04T09:36:42;10.40;99.90
12303;DHT22;6214;48.012;7.862;2023-01-04T09:39:09;10.40;99.90
12303;DHT22;6214;48.012;7.862;2023-01-04T09:42:01;10.50;99.90
12303;DHT22;6214;48.012;7.862;2023-01-04T09:44:42;10.50;99.90
12303;DHT22;6214;48.012;7.862;2023-01-04T09:47:45;10.50;99.90
12303;DHT22;6214;48.012;7.862;2023-01-04T09:50:27;10.60;99.90
12303;DHT22;6214;48.012;7.862;2023-01-04T09:53:43;10.70;99.90
12303;DHT22;6214;48.012;7.862;2023-01-04T09:56:24;10.80;99.90
12303;DHT22;6214;48.012;7.862;2023-01-04T09:58:52;10.80;99.90
12303;DHT22;6214;48.012;7.862;2023-01-04T10:01:40;10.80;99.90
12303;DHT22;6214;48.012;7.862;2023-01-04T10:04:28;10.80;99.90
12303;DHT22;6214;48.012;7.862;2023-01-04T10:07:00;10.90;99.90
12303;DHT22;6214;48.012;7.862;2023-01-04T10:09:31;10.80;99.90
12303;DHT22;6214;48.012;7.862;2023-01-04T10:15:02;11.00;99.90
12303;DHT22;6214;48.012;7.862;2023-01-04T10:26:36;11.10;99.90
12303;DHT22;6214;48.012;7.862;2023-01-04T10:29:16;11.00;99.90
12303;DHT22;6214;48.012;7.862;2023-01-04T10:31:49;11.10;99.90
12303;DHT22;6214;48.012;7.862;2023-01-04T10:34:28;11.20;99.90
12303;DHT22;6214;48.012;7.862;2023-01-04T10:36:58;11.30;99.90
12303;DHT22;6214;48.012;7.862;2023-01-04T10:39:34;11.40;99.90
12303;DHT22;6214;48.012;7.862;2023-01-04T10:42:28;11.40;99.90
12303;DHT22;6214;48.012;7.862;2023-01-04T10:45:19;11.40;99.90
12303;DHT22;6214;48.012;7.862;2023-01-04T10:50:43;11.70;99.90
12303;DHT22;6214;48.012;7.862;2023-01-04T10:53:24;11.80;99.90
12303;DHT22;6214;48.012;7.862;2023-01-04T10:56:07;11.60;99.90
12303;DHT22;6214;48.012;7.862;2023-01-04T11:04:54;11.80;99.90
12303;DHT22;6214;48.012;7.862;2023-01-04T11:07:11;11.80;99.90
12303;DHT22;6214;48.012;7.862;2023-01-04T11:09:50;11.80;99.90
12303;DHT22;6214;48.012;7.862;2023-01-04T11:12:21;11.80;99.90
12303;DHT22;6214;48.012;7.862;2023-01-04T11:14:49;11.80;99.90
12303;DHT22;6214;48.012;7.862;2023-01-04T11:17:17;11.90;99.90
12303;DHT22;6214;48.012;7.862;2023-01-04T11:19:45;12.00;99.90
12303;DHT22;6214;48.012;7.862;2023-01-04T11:22:35;12.00;99.90
12303;DHT22;6214;48.012;7.862;2023-01-04T11:25:11;12.20;99.90
12303;DHT22;6214;48.012;7.862;2023-01-04T11:30:52;12.00;99.90
12303;DHT22;6214;48.012;7.862;2023-01-04T11:33:21;12.10;99.90
12303;DHT22;6214;48.012;7.862;2023-01-04T11:35:53;12.20;99.90
12303;DHT22;6214;48.012;7.862;2023-01-04T11:38:26;12.30;99.90
12303;DHT22;6214;48.012;7.862;2023-01-04T11:43:29;12.20;99.90
12303;DHT22;6214;48.012;7.862;2023-01-04T11:46:04;12.20;99.90
12303;DHT22;6214;48.012;7.862;2023-01-04T11:48:39;12.30;99.90
12303;DHT22;6214;48.012;7.862;2023-01-04T11:56:27;12.30;99.90
12303;DHT22;6214;48.012;7.862;2023-01-04T12:01:36;12.30;99.90
12303;DHT22;6214;48.012;7.862;2023-01-04T12:04:09;12.40;99.90
12303;DHT22;6214;48.012;7.862;2023-01-04T12:06:58;12.30;99.90
12303;DHT22;6214;48.012;7.862;2023-01-04T12:09:25;12.30;99.90
12303;DHT22;6214;48.012;7.862;2023-01-04T12:11:57;12.30;99.90
12303;DHT22;6214;48.012;7.862;2023-01-04T12:14:36;12.40;99.90
12303;DHT22;6214;48.012;7.862;2023-01-04T12:17:14;12.40;99.90
12303;DHT22;6214;48.012;7.862;2023-01-04T12:19:43;12.40;99.90
12303;DHT22;6214;48.012;7.862;2023-01-04T12:22:24;12.50;99.90
12303;DHT22;6214;48.012;7.862;2023-01-04T12:24:52;12.50;99.90
12303;DHT22;6214;48.012;7.862;2023-01-04T12:27:26;12.50;99.90
12303;DHT22;6214;48.012;7.862;2023-01-04T12:34:48;12.70;99.90
12303;DHT22;6214;48.012;7.862;2023-01-04T12:45:45;12.70;99.90
12303;DHT22;6214;48.012;7.862;2023-01-04T12:51:23;12.60;99.90
12303;DHT22;6214;48.012;7.862;2023-01-04T12:54:03;12.70;99.90
12303;DHT22;6214;48.012;7.862;2023-01-04T12:57:35;12.70;99.90
12303;DHT22;6214;48.012;7.862;2023-01-04T12:59:38;12.70;99.90
12303;DHT22;6214;48.012;7.862;2023-01-04T13:02:25;12.60;99.90
12303;DHT22;6214;48.012;7.862;2023-01-04T13:04:58;12.60;99.90
12303;DHT22;6214;48.012;7.862;2023-01-04T13:07:48;12.50;99.90
12303;DHT22;6214;48.012;7.862;2023-01-04T13:10:37;12.50;99.90
12303;DHT22;6214;48.012;7.862;2023-01-04T13:16:12;12.50;99.90
12303;DHT22;6214;48.012;7.862;2023-01-04T13:18:42;12.50;99.90
12303;DHT22;6214;48.012;7.862;2023-01-04T13:26:49;12.40;99.90
12303;DHT22;6214;48.012;7.862;2023-01-04T13:31:49;12.30;99.90
12303;DHT22;6214;48.012;7.862;2023-01-04T13:34:33;12.30;99.90
12303;DHT22;6214;48.012;7.862;2023-01-04T13:39:40;12.10;99.90
12303;DHT22;6214;48.012;7.862;2023-01-04T13:42:29;12.10;99.90
12303;DHT22;6214;48.012;7.862;2023-01-04T13:47:44;12.10;99.90
12303;DHT22;6214;48.012;7.862;2023-01-04T13:52:50;12.40;99.90
12303;DHT22;6214;48.012;7.862;2023-01-04T13:55:34;12.30;99.90
12303;DHT22;6214;48.012;7.862;2023-01-04T13:58:02;12.20;99.90
12303;DHT22;6214;48.012;7.862;2023-01-04T14:05:52;12.10;99.90
12303;DHT22;6214;48.012;7.862;2023-01-04T14:08:59;12.10;99.90
12303;DHT22;6214;48.012;7.862;2023-01-04T14:14:38;12.20;99.90
12303;DHT22;6214;48.012;7.862;2023-01-04T14:19:50;12.20;99.90
12303;DHT22;6214;48.012;7.862;2023-01-04T14:24:52;12.30;99.90
12303;DHT22;6214;48.012;7.862;2023-01-04T14:27:38;12.30;99.90
12303;DHT22;6214;48.012;7.862;2023-01-04T14:30:25;12.40;99.90
12303;DHT22;6214;48.012;7.862;2023-01-04T14:33:08;12.30;99.90
12303;DHT22;6214;48.012;7.862;2023-01-04T14:35:39;12.30;99.90
12303;DHT22;6214;48.012;7.862;2023-01-04T14:38:17;12.30;99.90
12303;DHT22;6214;48.012;7.862;2023-01-04T14:40:44;12.40;99.90
12303;DHT22;6214;48.012;7.862;2023-01-04T14:44:15;12.40;99.90
12303;DHT22;6214;48.012;7.862;2023-01-04T14:46:22;12.30;99.90
12303;DHT22;6214;48.012;7.862;2023-01-04T14:48:48;12.20;99.90
12303;DHT22;6214;48.012;7.862;2023-01-04T14:51:18;12.20;99.90
12303;DHT22;6214;48.012;7.862;2023-01-04T14:53:46;12.40;99.90
12303;DHT22;6214;48.012;7.862;2023-01-04T14:56:15;12.40;99.90
12303;DHT22;6214;48.012;7.862;2023-01-04T14:58:43;12.40;99.90
12303;DHT22;6214;48.012;7.862;2023-01-04T15:01:11;12.40;99.90
12303;DHT22;6214;48.012;7.862;2023-01-04T15:03:38;12.40;99.90
12303;DHT22;6214;48.012;7.862;2023-01-04T15:06:05;12.40;99.90
12303;DHT22;6214;48.012;7.862;2023-01-04T15:08:32;12.40;99.90
12303;DHT22;6214;48.012;7.862;2023-01-04T15:10:59;12.30;99.90
12303;DHT22;6214;48.012;7.862;2023-01-04T15:13:26;12.20;99.90
12303;DHT22;6214;48.012;7.862;2023-01-04T15:15:55;12.10;99.90
12303;DHT22;6214;48.012;7.862;2023-01-04T15:18:22;12.10;99.90
12303;DHT22;6214;48.012;7.862;2023-01-04T15:20:49;12.00;99.90
12303;DHT22;6214;48.012;7.862;2023-01-04T15:23:16;12.00;99.90
12303;DHT22;6214;48.012;7.862;2023-01-04T15:25:42;11.90;99.90
12303;DHT22;6214;48.012;7.862;2023-01-04T15:28:10;11.90;99.90
12303;DHT22;6214;48.012;7.862;2023-01-04T15:30:40;11.80;99.90
12303;DHT22;6214;48.012;7.862;2023-01-04T15:33:08;11.80;99.90
12303;DHT22;6214;48.012;7.862;2023-01-04T15:35:35;11.90;99.90
12303;DHT22;6214;48.012;7.862;2023-01-04T15:38:02;11.80;99.90
12303;DHT22;6214;48.012;7.862;2023-01-04T15:40:32;11.80;99.90
12303;DHT22;6214;48.012;7.862;2023-01-04T15:43:01;11.80;99.90
12303;DHT22;6214;48.012;7.862;2023-01-04T15:45:39;11.80;99.90
12303;DHT22;6214;48.012;7.862;2023-01-04T15:48:08;11.70;99.90
12303;DHT22;6214;48.012;7.862;2023-01-04T15:50:38;11.70;99.90
12303;DHT22;6214;48.012;7.862;2023-01-04T15:53:06;11.60;99.90
12303;DHT22;6214;48.012;7.862;2023-01-04T15:55:34;11.70;99.90
12303;DHT22;6214;48.012;7.862;2023-01-04T15:58:04;11.60;99.90
12303;DHT22;6214;48.012;7.862;2023-01-04T16:00:31;11.70;99.90
12303;DHT22;6214;48.012;7.862;2023-01-04T16:02:58;11.70;99.90
12303;DHT22;6214;48.012;7.862;2023-01-04T16:05:25;11.80;99.90
12303;DHT22;6214;48.012;7.862;2023-01-04T16:07:52;11.70;99.90
12303;DHT22;6214;48.012;7.862;2023-01-04T16:10:19;11.70;99.90
12303;DHT22;6214;48.012;7.862;2023-01-04T16:12:46;11.80;99.90
12303;DHT22;6214;48.012;7.862;2023-01-04T16:15:22;11.80;99.90
12303;DHT22;6214;48.012;7.862;2023-01-04T16:17:49;11.80;99.90
12303;DHT22;6214;48.012;7.862;2023-01-04T16:20:17;11.90;99.90
12303;DHT22;6214;48.012;7.862;2023-01-04T16:22:44;12.00;99.90
12303;DHT22;6214;48.012;7.862;2023-01-04T16:25:11;11.90;99.90
12303;DHT22;6214;48.012;7.862;2023-01-04T16:27:38;12.00;99.90
12303;DHT22;6214;48.012;7.862;2023-01-04T16:30:11;12.10;99.90
12303;DHT22;6214;48.012;7.862;2023-01-04T16:32:42;12.10;99.90
12303;DHT22;6214;48.012;7.862;2023-01-04T16:35:10;12.00;99.90
12303;DHT22;6214;48.012;7.862;2023-01-04T16:37:37;11.90;99.90
12303;DHT22;6214;48.012;7.862;2023-01-04T16:40:05;12.00;99.90
12303;DHT22;6214;48.012;7.862;2023-01-04T16:42:35;12.00;99.90
12303;DHT22;6214;48.012;7.862;2023-01-04T16:45:03;12.00;99.90
12303;DHT22;6214;48.012;7.862;2023-01-04T16:47:37;12.00;99.90
12303;DHT22;6214;48.012;7.862;2023-01-04T16:50:05;12.00;99.90
12303;DHT22;6214;48.012;7.862;2023-01-04T16:52:32;12.00;99.90
12303;DHT22;6214;48.012;7.862;2023-01-04T16:54:59;12.00;99.90
12303;DHT22;6214;48.012;7.862;2023-01-04T16:57:26;11.90;99.90
12303;DHT22;6214;48.012;7.862;2023-01-04T16:59:53;11.90;99.90
12303;DHT22;6214;48.012;7.862;2023-01-04T17:02:20;11.90;99.90
12303;DHT22;6214;48.012;7.862;2023-01-04T17:04:48;11.90;99.90
12303;DHT22;6214;48.012;7.862;2023-01-04T17:07:21;11.90;99.90
12303;DHT22;6214;48.012;7.862;2023-01-04T17:09:48;12.00;99.90
12303;DHT22;6214;48.012;7.862;2023-01-04T17:12:15;12.00;99.90
12303;DHT22;6214;48.012;7.862;2023-01-04T17:15:02;12.00;99.90
12303;DHT22;6214;48.012;7.862;2023-01-04T17:17:49;12.10;99.90
12303;DHT22;6214;48.012;7.862;2023-01-04T17:20:16;12.10;99.90
12303;DHT22;6214;48.012;7.862;2023-01-04T17:22:43;12.20;99.90
12303;DHT22;6214;48.012;7.862;2023-01-04T17:25:09;12.20;99.90
12303;DHT22;6214;48.012;7.862;2023-01-04T17:27:36;12.20;99.90
12303;DHT22;6214;48.012;7.862;2023-01-04T17:30:03;12.30;99.90
12303;DHT22;6214;48.012;7.862;2023-01-04T17:32:30;12.20;99.90
12303;DHT22;6214;48.012;7.862;2023-01-04T17:34:57;12.20;99.90
12303;DHT22;6214;48.012;7.862;2023-01-04T17:37:25;12.20;99.90
12303;DHT22;6214;48.012;7.862;2023-01-04T17:39:52;12.30;99.90
12303;DHT22;6214;48.012;7.862;2023-01-04T17:42:18;12.30;99.90
12303;DHT22;6214;48.012;7.862;2023-01-04T17:44:46;12.20;99.90
12303;DHT22;6214;48.012;7.862;2023-01-04T17:47:14;12.30;99.90
12303;DHT22;6214;48.012;7.862;2023-01-04T17:49:41;12.30;99.90
12303;DHT22;6214;48.012;7.862;2023-01-04T17:52:08;12.30;99.90
12303;DHT22;6214;48.012;7.862;2023-01-04T17:54:42;12.20;99.90
12303;DHT22;6214;48.012;7.862;2023-01-04T17:57:09;12.30;99.90
12303;DHT22;6214;48.012;7.862;2023-01-04T17:59:36;12.40;99.90
12303;DHT22;6214;48.012;7.862;2023-01-04T18:02:02;12.20;99.90
12303;DHT22;6214;48.012;7.862;2023-01-04T18:04:30;12.30;99.90
12303;DHT22;6214;48.012;7.862;2023-01-04T18:06:56;12.30;99.90
12303;DHT22;6214;48.012;7.862;2023-01-04T18:09:23;12.20;99.90
12303;DHT22;6214;48.012;7.862;2023-01-04T18:11:52;12.40;99.90
12303;DHT22;6214;48.012;7.862;2023-01-04T18:14:19;12.50;99.90
12303;DHT22;6214;48.012;7.862;2023-01-04T18:16:46;12.50;99.90
12303;DHT22;6214;48.012;7.862;2023-01-04T18:19:26;12.50;99.90
12303;DHT22;6214;48.012;7.862;2023-01-04T18:21:53;12.50;99.90
12303;DHT22;6214;48.012;7.862;2023-01-04T18:24:20;12.40;99.90